Terminal Aerodrome Forecast
Issued by NWS Burlington, VT

Home | Current Version | Previous Version | Text Only | Print | Product List | Glossary On
Versions: 1 2 3 4 5 6 7 8 9 10 11 12 13 14 15 16 17 18
000
FTUS41 KBTV 010533
TAFBTV
TAF
KBTV 010533Z 0106/0206 17006KT P6SM -SHRA SCT025 OVC040
      TEMPO 0108/0112 3SM SHRA BR OVC028
     FM011300 18010G18KT P6SM VCSH SCT035 OVC045
      TEMPO 0116/0119 3SM -TSRA BR OVC028CB=

USA.gov is the U.S. government's official web portal to all federal, state and local government web resources and services.